ADDS METAR Data INFO
IDs: Format: Raw Decoded Include TAF

Data at: 1135 UTC 17 Jul 2018

KSIY 171053Z AUTO 00000KT 10SM CLR 18/13 A3008 RMK AO2 SLP168 T01780128
KSIY 170953Z AUTO 00000KT 10SM CLR 20/14 A3008 RMK AO2 SLP167 T02000144
KSIY 170853Z AUTO 23003KT 10SM CLR 20/15 A3008 RMK AO2 SLP164 T02000150 51006
KSIY 170753Z AUTO 18003KT 10SM CLR 21/15 A3007 RMK AO2 SLP165 T02110150 403780133
KSIY 170653Z AUTO 00000KT 10SM CLR 22/16 A3007 RMK AO2 SLP162 T02220161
KSIY 170553Z AUTO 22010KT 10SM FEW090 SCT120 24/16 A3006 RMK AO2 SLP160 60000 T02440156 10372 20244 53012
KSIY 170453Z AUTO 31010KT 10SM BKN080 OVC100 29/11 A3005 RMK AO2 WSHFT 0412 RAE06 SLP157 P0000 T02890106
KSIY 170432Z AUTO 25014KT 10SM FEW070 BKN100 BKN110 26/15 A3006 RMK AO2 WSHFT 0412 RAE06 P0000 T02610150
KSIY 170407Z AUTO 17006KT 10SM OVC100 27/14 A3003 RMK AO2 LTG DSNT SW RAE06 P0000 T02670144
KSIY 170353Z AUTO 14007KT 10SM VCTS -RA OVC100 32/08 A3002 RMK AO2 PK WND 18045/0316 WSHFT 0323 LTG DSNT SW RAB17 TSE25 SLP145 P0000 T03170083
KSIY 170343Z AUTO 00000KT 9SM -RA FEW075 OVC100 31/09 A3002 RMK AO2 PK WND 18045/0316 WSHFT 0323 RAB17 TSE25 P0000 T03110089
KSIY 170325Z AUTO 18025G45KT 10SM -RA OVC100 28/11 A3001 RMK AO2 PK WND 18045/0316 WSHFT 0307 RAB17 TSE25 P0000 T02830106
KSIY 170253Z AUTO 01007KT 10SM TS SCT110 34/08 A3000 RMK AO2 TSB51 SLP139 T03390083 53006
KSIY 170153Z AUTO 34014KT 10SM FEW120 34/08 A2999 RMK AO2 SLP137 T03390083
KSIY 170053Z AUTO 35008KT 10SM CLR 36/05 A2998 RMK AO2 SLP136 T03560050
KSIY 162353Z AUTO 30004KT 10SM CLR 37/03 A2998 RMK AO2 SLP136 T03670028 10378 20283 56015
KSIY 162253Z AUTO VRB03KT 10SM CLR 37/02 A3000 RMK AO2 SLP141 T03670017
KSIY 162153Z AUTO 00000KT 10SM CLR 36/M01 A3002 RMK AO2 SLP147 T03611006
KSIY 162053Z AUTO VRB05KT 10SM CLR 36/07 A3003 RMK AO2 SLP151 T03560067 58016
KSIY 161953Z AUTO 21003KT 10SM CLR 33/07 A3005 RMK AO2 SLP159 T03330072
KSIY 161853Z AUTO 00000KT 10SM CLR 31/09 A3007 RMK AO2 SLP167 T03060094
KSIY 161753Z AUTO VRB03KT 10SM CLR 28/10 A3008 RMK AO2 SLP172 T02830100 10283 20133 58009
KSIY 161653Z AUTO 00000KT 10SM CLR 27/10 A3010 RMK AO2 SLP176 T02670100
KSIY 161553Z AUTO 02005KT 10SM CLR 24/11 A3011 RMK AO2 SLP181 T02390106
KSIY 161453Z AUTO 03004KT 10SM CLR 21/12 A3011 RMK AO2 SLP182 T02110117 51008
KSIY 161353Z AUTO 00000KT 10SM CLR 16/09 A3011 RMK AO2 SLP183 T01560094
KSIY 161253Z AUTO 01005KT 10SM CLR 14/09 A3010 RMK AO2 SLP181 T01390089
KSIY 161153Z AUTO 13004KT 10SM CLR 16/09 A3009 RMK AO2 SLP175 70008 T01560089 10211 20144 53006
KSIY 161053Z AUTO 20004KT 10SM CLR 14/09 A3008 RMK AO2 SLP174 T01440094
KSIY 160953Z AUTO 00000KT 10SM CLR 16/09 A3007 RMK AO2 SLP170 T01610089
KSIY 160853Z AUTO 08003KT 10SM CLR 17/09 A3007 RMK AO2 SLP166 T01720089 50005
KSIY 160753Z AUTO 00000KT 10SM CLR 17/10 A3007 RMK AO2 SLP166 T01720100 403280161
KSIY 160653Z AUTO 00000KT 10SM CLR 19/08 A3006 RMK AO2 SLP163 T01940083
KSIY 160553Z AUTO 11003KT 10SM CLR 21/09 A3005 RMK AO2 SLP163 T02060094 10322 20206 53011
KSIY 160453Z AUTO 23003KT 10SM CLR 23/12 A3004 RMK AO2 SLP157 T02330117
KSIY 160353Z AUTO 17004KT 10SM CLR 24/12 A3003 RMK AO2 SLP152 T02440122
KSIY 160253Z AUTO 19007KT 10SM CLR 28/13 A3002 RMK AO2 SLP148 T02780133 55007
KSIY 160153Z AUTO 18010KT 10SM CLR 31/08 A3001 RMK AO2 SLP146 T03110078
KSIY 160053Z AUTO 18007KT 10SM CLR 31/09 A3003 RMK AO2 SLP154 T03060089